createdAt,value
2022-12-14T00:02:02.974Z,21.83
2022-12-14T00:04:31.364Z,20.33
2022-12-14T00:06:59.457Z,20.83
2022-12-14T00:09:28.968Z,21.63
2022-12-14T00:11:57.097Z,21.57
2022-12-14T00:14:25.472Z,21.40
2022-12-14T00:16:53.583Z,24.90
2022-12-14T00:19:21.741Z,21.47
2022-12-14T00:21:49.805Z,21.87
2022-12-14T00:24:17.927Z,22.17
2022-12-14T00:26:47.410Z,21.00
2022-12-14T00:29:15.525Z,20.60
2022-12-14T00:31:43.672Z,22.33
2022-12-14T00:34:17.167Z,20.43
2022-12-14T00:36:45.274Z,21.03
2022-12-14T00:39:13.363Z,23.83
2022-12-14T00:41:41.484Z,21.37
2022-12-14T00:44:10.955Z,19.97
2022-12-14T00:46:39.166Z,19.93
2022-12-14T00:49:07.517Z,20.77
2022-12-14T00:51:35.694Z,18.00
2022-12-14T00:54:03.857Z,18.43
2022-12-14T00:56:32.009Z,19.97
2022-12-14T00:59:00.462Z,19.20
2022-12-14T01:01:30.528Z,17.33
2022-12-14T01:04:17.107Z,19.80
2022-12-14T01:06:46.133Z,19.60
2022-12-14T01:09:14.889Z,21.17
2022-12-14T01:11:44.374Z,19.60
2022-12-14T01:14:16.113Z,20.13
2022-12-14T01:16:45.871Z,21.00
2022-12-14T01:19:16.189Z,22.43
2022-12-14T01:21:44.637Z,18.53
2022-12-14T01:24:12.710Z,19.30
2022-12-14T01:26:41.530Z,18.93
2022-12-14T01:29:09.782Z,22.23
2022-12-14T01:31:40.003Z,20.17
2022-12-14T01:34:10.519Z,17.70
2022-12-14T01:36:39.710Z,17.47
2022-12-14T01:39:13.478Z,19.77
2022-12-14T01:41:44.193Z,20.03
2022-12-14T01:45:05.178Z,19.97
2022-12-14T01:47:43.841Z,18.70
2022-12-14T01:50:25.482Z,17.60
2022-12-14T01:52:59.099Z,19.10
2022-12-14T01:55:32.836Z,18.70
2022-12-14T01:58:08.316Z,22.50
2022-12-14T02:00:36.552Z,19.20
2022-12-14T02:03:11.267Z,18.80
2022-12-14T02:05:47.239Z,15.73
2022-12-14T02:08:18.405Z,20.47
2022-12-14T02:10:48.122Z,16.77
2022-12-14T02:13:22.639Z,17.90
2022-12-14T02:15:51.835Z,18.60
2022-12-14T02:18:23.988Z,20.13
2022-12-14T02:21:20.201Z,19.10
2022-12-14T02:24:44.582Z,19.97
2022-12-14T02:27:33.453Z,17.40
2022-12-14T02:30:08.655Z,18.60
2022-12-14T02:33:08.839Z,18.30
2022-12-14T02:35:49.053Z,18.73
2022-12-14T02:38:34.975Z,19.53
2022-12-14T02:41:16.281Z,16.33
2022-12-14T02:43:56.152Z,17.50
2022-12-14T02:46:34.142Z,15.50
2022-12-14T02:49:10.852Z,18.53
2022-12-14T02:51:54.444Z,16.70
2022-12-14T02:54:30.422Z,16.57
2022-12-14T02:57:09.475Z,17.40
2022-12-14T02:59:38.270Z,17.73
2022-12-14T03:02:08.927Z,18.90
2022-12-14T03:04:45.826Z,16.10
2022-12-14T03:07:41.448Z,18.30
2022-12-14T03:10:22.346Z,16.80
2022-12-14T03:13:02.507Z,17.57
2022-12-14T03:15:32.459Z,16.17
2022-12-14T03:18:08.146Z,18.13
2022-12-14T03:20:39.285Z,18.97
2022-12-14T03:23:13.147Z,19.33
2022-12-14T03:25:48.808Z,20.20
2022-12-14T03:28:23.094Z,16.80
2022-12-14T03:31:00.596Z,15.87
2022-12-14T03:33:33.268Z,17.93
2022-12-14T03:36:11.577Z,16.97
2022-12-14T03:38:44.581Z,15.60
2022-12-14T03:41:24.669Z,15.97
2022-12-14T03:44:11.170Z,17.73
2022-12-14T03:46:53.842Z,17.53
2022-12-14T03:49:43.124Z,16.83
2022-12-14T03:52:24.950Z,17.60
2022-12-14T03:55:06.613Z,16.90
2022-12-14T03:57:52.829Z,19.10
2022-12-14T04:00:26.229Z,17.20
2022-12-14T04:03:11.043Z,18.40
2022-12-14T04:05:49.267Z,15.53
2022-12-14T04:08:40.128Z,16.30
2022-12-14T04:11:30.325Z,17.77
2022-12-14T04:14:25.381Z,16.10
2022-12-14T04:17:13.973Z,16.13
2022-12-14T04:19:51.628Z,14.70
2022-12-14T04:22:27.386Z,15.13
2022-12-14T04:25:20.292Z,15.90
2022-12-14T04:27:54.823Z,14.60
2022-12-14T04:30:22.087Z,14.07
2022-12-14T04:32:54.391Z,14.53
2022-12-14T04:35:28.442Z,20.63
2022-12-14T04:38:04.389Z,13.77
2022-12-14T04:40:39.193Z,13.27
2022-12-14T04:43:14.704Z,14.70
2022-12-14T04:45:50.018Z,16.30
2022-12-14T04:48:30.392Z,13.77
2022-12-14T04:51:10.485Z,15.23
2022-12-14T04:53:45.792Z,16.87
2022-12-14T04:56:24.192Z,16.67
2022-12-14T04:58:52.748Z,16.67
2022-12-14T05:01:40.959Z,17.13
2022-12-14T05:04:25.611Z,14.83
2022-12-14T05:07:07.885Z,16.63
2022-12-14T05:09:47.388Z,15.47
2022-12-14T05:12:24.384Z,16.43
2022-12-14T05:15:00.758Z,16.13
2022-12-14T05:17:29.438Z,15.83
2022-12-14T05:19:57.578Z,14.90
2022-12-14T05:22:25.700Z,15.47
2022-12-14T05:24:55.213Z,16.30
2022-12-14T05:27:23.580Z,16.77
2022-12-14T05:29:51.697Z,16.47
2022-12-14T05:32:19.764Z,18.33
2022-12-14T05:34:47.883Z,19.77
2022-12-14T05:37:18.389Z,17.33
2022-12-14T05:39:46.928Z,16.47
2022-12-14T05:42:16.627Z,16.47
2022-12-14T05:44:44.906Z,18.33
2022-12-14T05:47:13.993Z,17.27
2022-12-14T05:49:42.177Z,17.53
2022-12-14T05:52:10.342Z,19.33
2022-12-14T05:54:38.491Z,18.33
2022-12-14T05:57:06.824Z,16.50
2022-12-14T05:59:36.254Z,17.50
2022-12-14T06:02:05.018Z,14.83
2022-12-14T06:04:33.204Z,15.93
2022-12-14T06:07:01.369Z,17.07
2022-12-14T06:09:29.502Z,18.37
2022-12-14T06:11:57.760Z,15.20
2022-12-14T06:14:25.876Z,15.30
2022-12-14T06:16:55.389Z,18.23
2022-12-14T06:19:23.482Z,19.33
2022-12-14T06:21:51.612Z,15.13
2022-12-14T06:24:19.856Z,19.63
2022-12-14T06:26:47.968Z,17.13
2022-12-14T06:29:19.928Z,17.27
2022-12-14T06:31:49.065Z,17.57
2022-12-14T06:34:23.466Z,17.97
2022-12-14T06:36:54.558Z,15.97
2022-12-14T06:39:22.624Z,16.27
2022-12-14T06:41:51.967Z,13.67
2022-12-14T06:44:20.650Z,14.60
2022-12-14T06:46:48.823Z,16.43
2022-12-14T06:49:18.733Z,15.70
2022-12-14T06:51:46.954Z,16.60
2022-12-14T06:54:16.917Z,14.83
2022-12-14T06:56:47.367Z,16.73
2022-12-14T06:59:17.300Z,16.80
2022-12-14T07:01:50.230Z,17.10
2022-12-14T07:04:21.290Z,20.30
2022-12-14T07:06:49.727Z,17.17
2022-12-14T07:09:17.802Z,17.80
2022-12-14T07:11:45.891Z,16.60
2022-12-14T07:14:17.672Z,14.33
2022-12-14T07:16:48.654Z,16.50
2022-12-14T07:19:19.376Z,17.37
2022-12-14T07:21:47.605Z,15.57
2022-12-14T07:24:15.999Z,17.47
2022-12-14T07:26:44.171Z,15.70
2022-12-14T07:29:14.612Z,16.50
2022-12-14T07:31:42.723Z,17.23
2022-12-14T07:34:14.239Z,16.07
2022-12-14T07:36:44.156Z,16.50
2022-12-14T07:39:15.279Z,17.00
2022-12-14T07:41:44.578Z,16.40
2022-12-14T07:44:12.949Z,16.50
2022-12-14T07:46:42.178Z,17.17
2022-12-14T07:49:12.102Z,17.13
2022-12-14T07:51:44.151Z,16.63
2022-12-14T07:54:13.636Z,17.63
2022-12-14T07:56:44.580Z,17.57
2022-12-14T07:59:16.254Z,15.90
2022-12-14T08:01:45.577Z,16.83
2022-12-14T08:04:16.575Z,16.50
2022-12-14T08:06:47.845Z,15.33
2022-12-14T08:09:17.049Z,17.13
2022-12-14T08:11:45.349Z,17.33
2022-12-14T08:14:17.989Z,17.77
2022-12-14T08:16:46.955Z,17.13
2022-12-14T08:19:15.731Z,18.23
2022-12-14T08:21:46.292Z,19.23
2022-12-14T08:24:16.883Z,17.37
2022-12-14T08:26:49.293Z,17.60
2022-12-14T08:29:18.979Z,18.53
2022-12-14T08:31:47.223Z,15.97
2022-12-14T08:34:20.684Z,19.93
2022-12-14T08:36:50.513Z,16.97
2022-12-14T08:39:18.639Z,16.03
2022-12-14T08:41:46.756Z,18.27
2022-12-14T08:44:16.945Z,18.13
2022-12-14T08:46:45.196Z,16.90
2022-12-14T08:49:13.621Z,18.80
2022-12-14T08:51:41.988Z,17.20
2022-12-14T08:54:11.815Z,16.37
2022-12-14T08:56:40.180Z,15.57
2022-12-14T08:59:08.363Z,17.83
2022-12-14T09:01:36.582Z,16.23
2022-12-14T09:04:08.798Z,18.73
2022-12-14T09:06:40.254Z,18.37
2022-12-14T09:09:16.420Z,18.47
2022-12-14T09:11:45.456Z,18.77
2022-12-14T09:14:13.881Z,18.03
2022-12-14T09:16:42.509Z,17.07
2022-12-14T09:19:10.734Z,17.37
2022-12-14T09:21:39.739Z,18.57
2022-12-14T09:24:08.166Z,17.57
2022-12-14T09:26:37.673Z,16.90
2022-12-14T09:29:05.927Z,16.43
2022-12-14T09:31:34.080Z,18.73
2022-12-14T09:34:02.257Z,19.27
2022-12-14T09:36:30.537Z,18.63
2022-12-14T09:38:59.420Z,18.17
2022-12-14T09:41:56.365Z,16.87
2022-12-14T09:44:48.302Z,17.07
2022-12-14T09:47:22.004Z,18.53
2022-12-14T09:49:56.027Z,16.50
2022-12-14T09:52:35.340Z,18.50
2022-12-14T09:55:16.444Z,17.73
2022-12-14T09:57:49.615Z,19.73
2022-12-14T10:00:20.940Z,16.67
2022-12-14T10:03:29.753Z,17.97
2022-12-14T10:06:34.082Z,18.03
2022-12-14T10:09:17.716Z,21.17
2022-12-14T10:11:57.863Z,20.00
2022-12-14T10:14:51.009Z,18.50
2022-12-14T10:17:32.775Z,17.73
2022-12-14T10:20:14.284Z,18.93
2022-12-14T10:22:49.473Z,18.93
2022-12-14T10:25:24.701Z,16.17
2022-12-14T10:28:10.742Z,18.87
2022-12-14T10:30:43.259Z,19.03
2022-12-14T10:33:24.292Z,18.63
2022-12-14T10:35:55.503Z,19.93
2022-12-14T10:38:30.926Z,18.30
2022-12-14T10:41:13.950Z,21.93
2022-12-14T10:43:53.040Z,17.97
2022-12-14T10:46:35.287Z,19.87
2022-12-14T10:49:17.377Z,19.53
2022-12-14T10:51:51.293Z,18.83
2022-12-14T10:54:29.569Z,21.40
2022-12-14T10:56:58.100Z,18.90
2022-12-14T10:59:40.681Z,21.27
2022-12-14T11:02:18.915Z,18.13
2022-12-14T11:04:52.637Z,15.63
2022-12-14T11:07:24.937Z,20.67
2022-12-14T11:09:53.790Z,21.80
2022-12-14T11:12:26.731Z,21.83
2022-12-14T11:14:59.591Z,19.53
2022-12-14T11:17:36.230Z,21.50
2022-12-14T11:20:18.847Z,20.70
2022-12-14T11:22:51.422Z,20.87
2022-12-14T11:25:35.114Z,20.40
2022-12-14T11:28:17.905Z,21.43
2022-12-14T11:30:58.333Z,21.83
2022-12-14T11:33:35.764Z,20.93
2022-12-14T11:36:04.392Z,22.57
2022-12-14T11:38:33.189Z,22.40
2022-12-14T11:41:11.150Z,20.37
2022-12-14T11:43:41.135Z,20.73
2022-12-14T11:46:09.408Z,19.50
2022-12-14T11:48:50.029Z,19.77
2022-12-14T11:51:18.147Z,21.97
2022-12-14T11:54:03.627Z,23.13
2022-12-14T11:56:31.969Z,22.37
2022-12-14T11:59:00.486Z,20.83
2022-12-14T12:01:29.061Z,19.83
2022-12-14T12:04:00.590Z,18.07
2022-12-14T12:06:31.106Z,19.70
2022-12-14T12:09:03.665Z,21.67
2022-12-14T12:11:35.741Z,23.10
2022-12-14T12:14:14.680Z,22.30
2022-12-14T12:16:45.559Z,19.53
2022-12-14T12:19:26.216Z,19.83
2022-12-14T12:21:56.957Z,20.77
2022-12-14T12:24:30.598Z,20.73
2022-12-14T12:27:01.489Z,20.80
2022-12-14T12:29:38.418Z,20.27
2022-12-14T12:32:14.125Z,22.13
2022-12-14T12:34:52.410Z,23.73
2022-12-14T12:37:30.231Z,21.07
2022-12-14T12:40:05.646Z,20.87
2022-12-14T12:42:45.689Z,20.90
2022-12-14T12:45:22.536Z,22.63
2022-12-14T12:48:00.189Z,19.50
2022-12-14T12:50:36.599Z,22.90
2022-12-14T12:53:11.706Z,21.47
2022-12-14T12:55:46.210Z,22.37
2022-12-14T12:58:23.688Z,21.20
2022-12-14T13:00:56.011Z,20.90
2022-12-14T13:03:32.287Z,19.40
2022-12-14T13:06:14.916Z,21.77
2022-12-14T13:08:47.814Z,21.20
2022-12-14T13:11:26.587Z,22.07
2022-12-14T13:14:03.138Z,20.33
2022-12-14T13:16:35.984Z,19.93
2022-12-14T13:19:50.388Z,20.93
2022-12-14T13:22:15.132Z,21.27
2022-12-14T13:24:47.977Z,21.43
2022-12-14T13:27:45.431Z,22.43
2022-12-14T13:30:31.402Z,21.07
2022-12-14T13:33:33.185Z,22.93
2022-12-14T13:37:04.209Z,22.23
2022-12-14T13:40:02.726Z,23.07
2022-12-14T13:42:52.074Z,23.20
2022-12-14T13:45:24.728Z,24.80
2022-12-14T13:47:57.107Z,24.03
2022-12-14T13:50:36.290Z,21.83
2022-12-14T13:53:15.449Z,22.87
2022-12-14T13:55:53.120Z,21.80
2022-12-14T13:58:32.691Z,23.03
2022-12-14T14:01:03.996Z,21.33
2022-12-14T14:03:51.171Z,22.97
2022-12-14T14:06:36.646Z,21.50
2022-12-14T14:09:49.347Z,21.80
2022-12-14T14:12:45.697Z,22.80
2022-12-14T14:15:38.333Z,22.77
2022-12-14T14:18:16.593Z,22.37
2022-12-14T14:20:49.906Z,20.17
2022-12-14T14:23:52.938Z,22.37
2022-12-14T14:26:28.083Z,25.77
2022-12-14T14:29:28.017Z,22.43
2022-12-14T14:32:00.754Z,25.47
2022-12-14T14:34:49.895Z,24.03
2022-12-14T14:37:31.753Z,24.30
2022-12-14T14:40:20.692Z,23.67
2022-12-14T14:43:00.303Z,20.83
2022-12-14T14:45:40.863Z,25.20
2022-12-14T14:48:28.184Z,22.87
2022-12-14T14:51:09.671Z,26.37
2022-12-14T14:53:38.903Z,23.97
2022-12-14T14:56:39.762Z,27.73
2022-12-14T14:59:43.411Z,22.60
2022-12-14T15:02:34.954Z,25.37
2022-12-14T15:05:33.399Z,25.10
2022-12-14T15:07:58.470Z,22.77
2022-12-14T15:10:35.426Z,25.47
2022-12-14T15:13:08.689Z,26.63
2022-12-14T15:15:42.357Z,24.70
2022-12-14T15:18:23.631Z,23.03
2022-12-14T15:20:59.269Z,24.57
2022-12-14T15:23:34.182Z,23.13
2022-12-14T15:26:04.874Z,24.90
2022-12-14T15:28:33.388Z,24.67
2022-12-14T15:31:01.700Z,25.47
2022-12-14T15:33:36.579Z,23.47
2022-12-14T15:36:08.090Z,24.47
2022-12-14T15:38:38.111Z,24.77
2022-12-14T15:41:15.415Z,24.50
2022-12-14T15:43:45.859Z,25.50
2022-12-14T15:46:20.993Z,29.60
2022-12-14T15:48:58.081Z,26.37
2022-12-14T15:51:32.636Z,26.87
2022-12-14T15:54:04.285Z,25.57
2022-12-14T15:56:37.092Z,29.47
2022-12-14T15:59:16.684Z,27.17
2022-12-14T16:01:53.541Z,25.40
2022-12-14T16:04:29.143Z,23.83
2022-12-14T16:07:08.434Z,24.53
2022-12-14T16:09:43.167Z,25.27
2022-12-14T16:12:20.469Z,22.97
2022-12-14T16:14:56.727Z,27.43
2022-12-14T16:17:32.218Z,22.37
2022-12-14T16:20:17.679Z,28.30
2022-12-14T16:23:01.398Z,26.10
2022-12-14T16:25:31.266Z,29.40
2022-12-14T16:28:20.968Z,23.80
2022-12-14T16:31:00.327Z,24.70
2022-12-14T16:33:29.763Z,28.60
2022-12-14T16:36:09.563Z,27.93
2022-12-14T16:38:54.621Z,26.70
2022-12-14T16:41:36.918Z,29.87
2022-12-14T16:44:08.699Z,29.10
2022-12-14T16:46:37.526Z,27.63
2022-12-14T16:49:30.383Z,32.43
2022-12-14T16:52:07.654Z,31.17
2022-12-14T16:54:38.697Z,28.90
2022-12-14T16:57:22.103Z,27.47
2022-12-14T17:00:00.209Z,28.83
2022-12-14T17:02:33.483Z,31.23
2022-12-14T17:05:06.902Z,29.07
2022-12-14T17:07:39.176Z,29.87
2022-12-14T17:10:16.197Z,27.83
2022-12-14T17:12:45.112Z,31.10
2022-12-14T17:15:15.530Z,29.40
2022-12-14T17:17:45.647Z,31.77
2022-12-14T17:20:24.801Z,33.33
2022-12-14T17:22:58.434Z,30.00
2022-12-14T17:25:28.122Z,29.97
2022-12-14T17:27:56.759Z,30.10
2022-12-14T17:30:26.832Z,28.93
2022-12-14T17:32:56.648Z,30.43
2022-12-14T17:35:28.629Z,29.97
2022-12-14T17:37:58.160Z,28.43
2022-12-14T17:40:26.943Z,27.40
2022-12-14T17:42:58.675Z,28.63
2022-12-14T17:45:30.408Z,28.10
2022-12-14T17:47:59.299Z,25.50
2022-12-14T17:50:27.392Z,28.87
2022-12-14T17:52:56.966Z,27.23
2022-12-14T17:55:27.658Z,26.03
2022-12-14T17:57:57.750Z,27.87
2022-12-14T18:00:47.245Z,30.07
2022-12-14T18:03:18.210Z,26.53
2022-12-14T18:05:50.106Z,25.70
2022-12-14T18:08:21.062Z,26.93
2022-12-14T18:10:53.329Z,26.87
2022-12-14T18:13:21.453Z,31.47
2022-12-14T18:15:52.754Z,29.30
2022-12-14T18:18:27.513Z,31.10
2022-12-14T18:21:00.131Z,28.37
2022-12-14T18:23:31.714Z,33.07
2022-12-14T18:26:02.599Z,29.30
2022-12-14T18:28:30.706Z,33.27
2022-12-14T18:31:04.787Z,30.23
2022-12-14T18:33:34.481Z,30.10
2022-12-14T18:36:03.063Z,30.27
2022-12-14T18:38:32.631Z,29.40
2022-12-14T18:41:03.129Z,32.57
2022-12-14T18:43:32.889Z,25.73
2022-12-14T18:46:01.544Z,28.20
2022-12-14T18:48:29.791Z,27.13
2022-12-14T18:50:58.282Z,30.73
2022-12-14T18:53:28.001Z,31.20
2022-12-14T18:55:58.049Z,34.80
2022-12-14T18:58:28.453Z,29.50
2022-12-14T19:01:00.507Z,29.53
2022-12-14T19:03:31.978Z,31.07
2022-12-14T19:06:34.809Z,31.57
2022-12-14T19:08:54.780Z,31.53
2022-12-14T19:11:32.775Z,34.23
2022-12-14T19:14:02.010Z,32.47
2022-12-14T19:16:30.647Z,28.27
2022-12-14T19:18:59.606Z,33.17
2022-12-14T19:21:29.304Z,34.13
2022-12-14T19:23:59.295Z,30.70
2022-12-14T19:26:29.560Z,32.40
2022-12-14T19:28:58.487Z,37.37
2022-12-14T19:31:27.161Z,32.00
2022-12-14T19:33:55.769Z,32.70
2022-12-14T19:36:24.917Z,32.67
2022-12-14T19:38:53.061Z,34.27
2022-12-14T19:41:21.432Z,36.83
2022-12-14T19:43:50.963Z,33.83
2022-12-14T19:46:19.153Z,34.33
2022-12-14T19:48:47.523Z,34.13
2022-12-14T19:51:16.133Z,35.87
2022-12-14T19:53:47.216Z,33.67
2022-12-14T19:56:18.483Z,33.37
2022-12-14T19:58:47.718Z,36.53
2022-12-14T20:01:18.636Z,36.23
2022-12-14T20:03:47.084Z,35.17
2022-12-14T20:06:15.267Z,39.30
2022-12-14T20:08:43.612Z,37.43
2022-12-14T20:11:12.936Z,37.03
2022-12-14T20:13:41.047Z,37.27
2022-12-14T20:16:15.962Z,36.20
2022-12-14T20:18:45.684Z,35.20
2022-12-14T20:21:21.668Z,40.77
2022-12-14T20:23:51.133Z,34.63
2022-12-14T20:26:22.519Z,39.27
2022-12-14T20:28:52.910Z,35.80
2022-12-14T20:31:22.338Z,35.43
2022-12-14T20:33:52.789Z,34.50
2022-12-14T20:36:22.099Z,33.60
2022-12-14T20:38:56.072Z,38.50
2022-12-14T20:41:24.427Z,38.40
2022-12-14T20:43:52.818Z,37.13
2022-12-14T20:46:31.390Z,37.33
2022-12-14T20:49:04.137Z,36.57
2022-12-14T20:51:35.183Z,35.07
2022-12-14T20:54:05.222Z,37.57
2022-12-14T20:56:34.922Z,37.17
2022-12-14T20:59:03.650Z,37.03
2022-12-14T21:01:31.929Z,35.93
2022-12-14T21:04:03.098Z,37.57
2022-12-14T21:06:32.992Z,38.67
2022-12-14T21:09:06.356Z,38.43
2022-12-14T21:11:55.348Z,36.87
2022-12-14T21:14:26.183Z,42.20
2022-12-14T21:16:55.072Z,43.33
2022-12-14T21:19:25.073Z,39.23
2022-12-14T21:21:54.367Z,39.13
2022-12-14T21:25:02.232Z,42.17
2022-12-14T21:27:18.488Z,40.90
2022-12-14T21:29:47.438Z,37.00
2022-12-14T21:32:18.143Z,43.80
2022-12-14T21:34:48.715Z,43.40
2022-12-14T21:37:17.394Z,42.20
2022-12-14T21:39:52.183Z,41.63
2022-12-14T21:42:22.060Z,40.37
2022-12-14T21:44:52.107Z,41.00
2022-12-14T21:47:23.021Z,42.87
2022-12-14T21:49:52.662Z,40.57
2022-12-14T21:52:23.876Z,40.30
2022-12-14T21:54:52.424Z,41.63
2022-12-14T21:57:41.912Z,39.93
2022-12-14T22:00:12.242Z,37.83
2022-12-14T22:02:41.628Z,43.23
2022-12-14T22:05:11.780Z,40.20
2022-12-14T22:07:39.857Z,40.43
2022-12-14T22:10:08.890Z,39.00
2022-12-14T22:12:37.217Z,41.30
2022-12-14T22:15:06.104Z,41.33
2022-12-14T22:17:34.660Z,39.93
2022-12-14T22:20:03.030Z,46.73
2022-12-14T22:22:32.473Z,45.37
2022-12-14T22:25:01.374Z,45.33
2022-12-14T22:27:29.578Z,40.27
2022-12-14T22:29:57.732Z,43.90
2022-12-14T22:32:26.103Z,43.10
2022-12-14T22:34:54.202Z,44.00
2022-12-14T22:37:22.359Z,41.13
2022-12-14T22:39:51.915Z,41.67
2022-12-14T22:42:20.041Z,40.23
2022-12-14T22:44:49.932Z,44.90
2022-12-14T22:47:18.063Z,42.30
2022-12-14T22:49:47.070Z,46.90
2022-12-14T22:52:18.548Z,40.67
2022-12-14T22:54:50.993Z,38.27
2022-12-14T22:57:22.398Z,39.93
2022-12-14T22:59:58.319Z,37.20
2022-12-14T23:02:26.921Z,40.00
2022-12-14T23:04:55.235Z,39.47
2022-12-14T23:07:24.012Z,40.93
2022-12-14T23:10:11.008Z,40.83
2022-12-14T23:12:56.906Z,40.40
2022-12-14T23:15:42.642Z,37.70
2022-12-14T23:18:28.153Z,38.77
2022-12-14T23:21:15.291Z,40.70
2022-12-14T23:24:04.014Z,40.43
2022-12-14T23:26:52.294Z,45.60
2022-12-14T23:29:38.166Z,43.37
2022-12-14T23:32:24.177Z,43.77
2022-12-14T23:35:10.043Z,40.97
2022-12-14T23:37:55.892Z,45.17
2022-12-14T23:40:41.478Z,48.27
2022-12-14T23:43:30.111Z,39.90
2022-12-14T23:46:16.741Z,44.93
2022-12-14T23:49:02.436Z,42.00
2022-12-14T23:51:48.869Z,45.77
2022-12-14T23:54:34.713Z,44.93
2022-12-14T23:57:22.749Z,38.20
